createdAt,value
2018-07-21T00:02:02.036Z,6.90
2018-07-21T00:04:29.852Z,9.93
2018-07-21T00:06:57.723Z,9.60
2018-07-21T00:09:25.557Z,8.13
2018-07-21T00:11:53.348Z,11.53
2018-07-21T00:14:21.164Z,9.13
2018-07-21T00:16:48.934Z,6.87
2018-07-21T00:19:16.743Z,8.07
2018-07-21T00:21:44.624Z,6.87
2018-07-21T00:24:12.475Z,12.87
2018-07-21T00:26:46.047Z,9.93
2018-07-21T00:29:13.809Z,7.07
2018-07-21T00:31:41.870Z,7.70
2018-07-21T00:34:09.654Z,8.23
2018-07-21T00:36:37.602Z,11.10
2018-07-21T00:39:08.731Z,7.47
2018-07-21T00:41:36.539Z,11.23
2018-07-21T00:44:04.547Z,7.97
2018-07-21T00:46:32.367Z,7.07
2018-07-21T00:49:00.251Z,7.97
2018-07-21T00:51:28.012Z,9.77
2018-07-21T00:53:55.815Z,7.33
2018-07-21T00:56:23.547Z,7.17
2018-07-21T00:58:51.387Z,8.87
2018-07-21T01:01:19.162Z,9.67
2018-07-21T01:03:47.001Z,11.83
2018-07-21T01:06:14.821Z,9.80
2018-07-21T01:08:42.548Z,7.47
2018-07-21T01:11:10.393Z,7.53
2018-07-21T01:13:38.244Z,7.63
2018-07-21T01:16:06.368Z,7.23
2018-07-21T01:18:34.260Z,9.93
2018-07-21T01:21:01.996Z,5.70
2018-07-21T01:23:29.823Z,6.60
2018-07-21T01:25:57.680Z,7.73
2018-07-21T01:28:25.508Z,6.63
2018-07-21T01:30:53.396Z,10.07
2018-07-21T01:33:21.150Z,6.77
2018-07-21T01:35:48.919Z,7.13
2018-07-21T01:38:16.707Z,7.70
2018-07-21T01:40:44.501Z,10.70
2018-07-21T01:43:12.348Z,9.37
2018-07-21T01:45:40.052Z,7.90
2018-07-21T01:48:07.933Z,8.43
2018-07-21T01:50:35.639Z,9.77
2018-07-21T01:53:03.487Z,8.23
2018-07-21T01:55:31.345Z,7.27
2018-07-21T01:57:59.161Z,6.60
2018-07-21T02:00:26.995Z,8.40
2018-07-21T02:02:54.871Z,8.40
2018-07-21T02:05:22.630Z,10.83
2018-07-21T02:07:50.476Z,7.47
2018-07-21T02:10:18.243Z,9.07
2018-07-21T02:12:46.117Z,10.77
2018-07-21T02:15:13.971Z,10.43
2018-07-21T02:17:41.783Z,11.40
2018-07-21T02:20:09.969Z,11.80
2018-07-21T02:22:37.850Z,8.00
2018-07-21T02:25:06.003Z,6.63
2018-07-21T02:27:33.843Z,6.40
2018-07-21T02:30:01.728Z,8.87
2018-07-21T02:32:29.568Z,9.33
2018-07-21T02:34:57.404Z,9.93
2018-07-21T02:37:25.239Z,5.80
2018-07-21T02:39:52.976Z,5.57
2018-07-21T02:42:20.846Z,6.70
2018-07-21T02:44:48.729Z,7.67
2018-07-21T02:47:16.625Z,5.80
2018-07-21T02:49:44.418Z,5.63
2018-07-21T02:52:12.223Z,7.13
2018-07-21T02:54:40.134Z,7.37
2018-07-21T02:57:07.908Z,9.57
2018-07-21T02:59:35.765Z,7.07
2018-07-21T03:02:03.568Z,6.47
2018-07-21T03:04:31.372Z,8.73
2018-07-21T03:06:59.201Z,6.63
2018-07-21T03:09:26.955Z,8.00
2018-07-21T03:11:54.717Z,6.17
2018-07-21T03:14:22.530Z,6.83
2018-07-21T03:16:50.355Z,9.00
2018-07-21T03:19:18.147Z,8.70
2018-07-21T03:21:45.928Z,8.67
2018-07-21T03:24:13.724Z,9.07
2018-07-21T03:26:41.572Z,9.47
2018-07-21T03:29:09.466Z,8.60
2018-07-21T03:31:37.236Z,7.13
2018-07-21T03:34:05.149Z,6.80
2018-07-21T03:36:32.947Z,9.73
2018-07-21T03:39:00.777Z,8.70
2018-07-21T03:41:28.588Z,8.40
2018-07-21T03:43:56.395Z,10.00
2018-07-21T03:46:24.235Z,8.00
2018-07-21T03:48:52.084Z,7.33
2018-07-21T03:51:19.874Z,8.93
2018-07-21T03:53:47.708Z,8.40
2018-07-21T03:56:15.529Z,9.47
2018-07-21T03:58:43.344Z,9.97
2018-07-21T04:01:11.191Z,7.43
2018-07-21T04:03:39.101Z,8.50
2018-07-21T04:06:06.959Z,7.83
2018-07-21T04:08:35.045Z,8.10
2018-07-21T04:11:03.105Z,12.93
2018-07-21T04:13:31.040Z,9.27
2018-07-21T04:15:58.915Z,7.80
2018-07-21T04:18:26.695Z,11.83
2018-07-21T04:20:54.527Z,8.83
2018-07-21T04:23:22.435Z,9.47
2018-07-21T04:25:50.135Z,9.63
2018-07-21T04:28:17.874Z,8.10
2018-07-21T04:30:45.743Z,8.50
2018-07-21T04:33:13.614Z,7.17
2018-07-21T04:35:41.394Z,8.33
2018-07-21T04:38:09.129Z,7.70
2018-07-21T04:40:36.927Z,9.07
2018-07-21T04:43:04.963Z,8.27
2018-07-21T04:45:32.739Z,9.00
2018-07-21T04:48:00.779Z,10.13
2018-07-21T04:50:28.627Z,7.77
2018-07-21T04:52:56.503Z,7.67
2018-07-21T04:55:24.271Z,7.57
2018-07-21T04:57:52.063Z,7.50
2018-07-21T05:00:19.918Z,7.80
2018-07-21T05:02:47.736Z,8.20
2018-07-21T05:05:15.600Z,12.47
2018-07-21T05:07:43.369Z,7.80
2018-07-21T05:10:11.132Z,10.10
2018-07-21T05:12:38.940Z,7.53
2018-07-21T05:15:06.769Z,7.37
2018-07-21T05:17:34.579Z,10.93
2018-07-21T05:20:02.415Z,10.23
2018-07-21T05:22:30.216Z,10.00
2018-07-21T05:24:58.080Z,11.57
2018-07-21T05:27:25.815Z,10.10
2018-07-21T05:29:53.518Z,10.27
2018-07-21T05:32:21.319Z,8.33
2018-07-21T05:34:49.125Z,12.83
2018-07-21T05:37:16.908Z,8.93
2018-07-21T05:39:44.764Z,8.97
2018-07-21T05:42:12.527Z,8.93
2018-07-21T05:44:40.336Z,11.87
2018-07-21T05:47:08.208Z,8.97
2018-07-21T05:49:36.023Z,12.57
2018-07-21T05:52:03.872Z,9.50
2018-07-21T05:54:31.680Z,9.70
2018-07-21T05:56:59.538Z,12.90
2018-07-21T05:59:27.285Z,10.10
2018-07-21T06:01:55.113Z,9.90
2018-07-21T06:04:22.946Z,11.90
2018-07-21T06:06:50.711Z,11.90
2018-07-21T06:09:18.563Z,10.50
2018-07-21T06:11:46.313Z,11.07
2018-07-21T06:14:14.094Z,10.93
2018-07-21T06:16:41.919Z,9.93
2018-07-21T06:19:09.711Z,9.70
2018-07-21T06:21:37.579Z,9.40
2018-07-21T06:24:05.488Z,9.23
2018-07-21T06:26:33.307Z,10.33
2018-07-21T06:29:01.151Z,9.23
2018-07-21T06:31:28.976Z,9.57
2018-07-21T06:33:56.779Z,9.90
2018-07-21T06:36:24.652Z,8.33
2018-07-21T06:38:52.403Z,9.13
2018-07-21T06:41:20.183Z,9.43
2018-07-21T06:43:48.116Z,8.73
2018-07-21T06:46:15.927Z,11.90
2018-07-21T06:48:43.804Z,9.57
2018-07-21T06:51:11.519Z,9.43
2018-07-21T06:53:39.468Z,8.63
2018-07-21T06:56:07.283Z,8.03
2018-07-21T06:58:34.994Z,8.97
2018-07-21T07:01:02.772Z,9.70
2018-07-21T07:03:30.576Z,8.97
2018-07-21T07:05:58.454Z,8.43
2018-07-21T07:08:26.273Z,9.13
2018-07-21T07:10:54.055Z,9.17
2018-07-21T07:13:21.864Z,12.43
2018-07-21T07:15:49.727Z,8.83
2018-07-21T07:18:17.532Z,9.47
2018-07-21T07:20:45.432Z,8.80
2018-07-21T07:23:13.307Z,9.53
2018-07-21T07:25:41.131Z,9.43
2018-07-21T07:28:08.885Z,9.77
2018-07-21T07:30:36.699Z,10.90
2018-07-21T07:33:04.435Z,8.57
2018-07-21T07:35:32.266Z,9.83
2018-07-21T07:38:00.012Z,10.93
2018-07-21T07:40:27.866Z,9.53
2018-07-21T07:42:55.576Z,8.93
2018-07-21T07:45:23.395Z,9.83
2018-07-21T07:47:51.307Z,8.70
2018-07-21T07:50:19.110Z,8.83
2018-07-21T07:52:46.899Z,10.97
2018-07-21T07:55:14.723Z,8.03
2018-07-21T07:57:42.470Z,8.33
2018-07-21T08:00:10.300Z,8.10
2018-07-21T08:02:38.124Z,8.00
2018-07-21T08:05:06.008Z,8.10
2018-07-21T08:07:33.747Z,8.10
2018-07-21T08:10:01.487Z,10.57
2018-07-21T08:12:29.213Z,8.87
2018-07-21T08:14:56.984Z,9.53
2018-07-21T08:17:24.872Z,9.07
2018-07-21T08:19:52.640Z,7.27
2018-07-21T08:22:20.475Z,7.80
2018-07-21T08:24:48.437Z,9.80
2018-07-21T08:27:16.171Z,8.67
2018-07-21T08:29:43.990Z,8.40
2018-07-21T08:32:11.879Z,10.77
2018-07-21T08:34:39.621Z,8.00
2018-07-21T08:37:07.412Z,7.20
2018-07-21T08:39:35.222Z,7.50
2018-07-21T08:42:07.045Z,7.63
2018-07-21T08:44:34.854Z,7.70
2018-07-21T08:47:02.674Z,7.47
2018-07-21T08:49:30.528Z,7.77
2018-07-21T08:51:58.355Z,8.37
2018-07-21T08:54:26.144Z,10.73
2018-07-21T08:56:53.932Z,6.60
2018-07-21T08:59:21.723Z,6.50
2018-07-21T09:01:49.595Z,7.17
2018-07-21T09:04:17.406Z,7.73
2018-07-21T09:06:45.222Z,6.13
2018-07-21T09:09:13.080Z,7.37
2018-07-21T09:11:41.571Z,6.97
2018-07-21T09:14:09.371Z,6.67
2018-07-21T09:16:37.151Z,6.90
2018-07-21T09:19:05.155Z,7.20
2018-07-21T09:21:33.018Z,6.87
2018-07-21T09:24:00.715Z,6.17
2018-07-21T09:26:28.571Z,7.17
2018-07-21T09:28:56.402Z,7.13
2018-07-21T09:31:24.135Z,8.10
2018-07-21T09:33:51.935Z,11.03
2018-07-21T09:36:19.851Z,10.07
2018-07-21T09:38:47.744Z,8.13
2018-07-21T09:41:15.516Z,13.67
2018-07-21T09:43:43.399Z,7.90
2018-07-21T09:46:11.268Z,6.43
2018-07-21T09:48:39.103Z,3.27
2018-07-21T09:51:07.275Z,3.33
2018-07-21T09:53:35.079Z,3.63
2018-07-21T09:56:04.060Z,3.50
2018-07-21T09:58:31.799Z,4.60
2018-07-21T10:01:04.115Z,3.87
2018-07-21T10:03:33.206Z,3.37
2018-07-21T10:06:01.051Z,4.17
2018-07-21T10:08:29.172Z,3.63
2018-07-21T10:10:57.047Z,4.33
2018-07-21T10:13:25.545Z,4.97
2018-07-21T10:15:53.329Z,7.00
2018-07-21T10:18:21.131Z,3.87
2018-07-21T10:20:48.967Z,5.10
2018-07-21T10:23:17.155Z,5.77
2018-07-21T10:25:50.663Z,6.30
2018-07-21T10:28:24.509Z,6.80
2018-07-21T10:30:52.280Z,7.10
2018-07-21T10:33:20.262Z,8.60
2018-07-21T10:35:48.035Z,7.93
2018-07-21T10:38:15.787Z,8.83
2018-07-21T10:40:43.793Z,8.97
2018-07-21T10:43:11.617Z,11.63
2018-07-21T10:45:39.471Z,9.37
2018-07-21T10:48:07.712Z,10.30
2018-07-21T10:50:35.742Z,9.30
2018-07-21T10:53:03.583Z,12.57
2018-07-21T10:55:31.439Z,12.00
2018-07-21T10:57:59.404Z,11.77
2018-07-21T11:00:27.186Z,15.73
2018-07-21T11:02:55.071Z,11.17
2018-07-21T11:05:22.864Z,11.80
2018-07-21T11:07:51.047Z,13.17
2018-07-21T11:10:18.889Z,14.10
2018-07-21T11:12:46.704Z,12.77
2018-07-21T11:15:14.547Z,12.07
2018-07-21T11:17:42.357Z,13.13
2018-07-21T11:20:10.336Z,13.27
2018-07-21T11:22:38.143Z,10.97
2018-07-21T11:25:06.931Z,12.33
2018-07-21T11:27:34.839Z,13.03
2018-07-21T11:30:02.675Z,11.43
2018-07-21T11:32:30.651Z,11.53
2018-07-21T11:34:59.610Z,12.17
2018-07-21T11:37:27.475Z,12.17
2018-07-21T11:39:55.251Z,15.13
2018-07-21T11:42:23.418Z,11.20
2018-07-21T11:44:51.252Z,12.10
2018-07-21T11:47:19.055Z,10.57
2018-07-21T11:49:46.959Z,12.20
2018-07-21T11:52:14.724Z,11.57
2018-07-21T11:54:43.025Z,11.50
2018-07-21T11:57:10.916Z,12.03
2018-07-21T11:59:38.659Z,11.47
2018-07-21T12:02:06.492Z,13.53
2018-07-21T12:04:34.336Z,12.07
2018-07-21T12:07:02.101Z,12.87
2018-07-21T12:09:29.911Z,12.53
2018-07-21T12:11:57.890Z,12.40
2018-07-21T12:14:25.736Z,11.80
2018-07-21T12:16:53.502Z,12.83
2018-07-21T12:19:21.271Z,13.77
2018-07-21T12:21:49.091Z,10.30
2018-07-21T12:24:16.940Z,12.23
2018-07-21T12:26:44.770Z,11.67
2018-07-21T12:29:14.613Z,14.73
2018-07-21T12:31:42.484Z,13.23
2018-07-21T12:34:10.291Z,13.00
2018-07-21T12:36:38.530Z,13.27
2018-07-21T12:39:08.229Z,13.17
2018-07-21T12:41:36.211Z,11.50
2018-07-21T12:44:04.088Z,10.23
2018-07-21T12:46:31.914Z,11.93
2018-07-21T12:48:59.700Z,11.47
2018-07-21T12:51:27.548Z,9.33
2018-07-21T12:53:59.119Z,11.00
2018-07-21T12:56:26.955Z,11.87
2018-07-21T12:58:54.794Z,8.53
2018-07-21T13:01:22.623Z,9.53
2018-07-21T13:03:50.447Z,9.63
2018-07-21T13:06:18.311Z,8.60
2018-07-21T13:08:46.083Z,8.43
2018-07-21T13:11:13.890Z,7.10
2018-07-21T13:13:41.772Z,8.73
2018-07-21T13:16:09.565Z,8.30
2018-07-21T13:18:37.340Z,8.40
2018-07-21T13:21:05.221Z,7.73
2018-07-21T13:23:33.088Z,8.30
2018-07-21T13:26:00.903Z,8.43
2018-07-21T13:28:28.684Z,7.37
2018-07-21T13:30:58.664Z,8.63
2018-07-21T13:33:26.663Z,8.37
2018-07-21T13:35:54.539Z,8.67
2018-07-21T13:38:23.896Z,8.43
2018-07-21T13:40:54.291Z,7.17
2018-07-21T13:43:23.168Z,6.33
2018-07-21T13:45:51.027Z,6.40
2018-07-21T13:48:23.162Z,7.30
2018-07-21T13:50:56.259Z,6.73
2018-07-21T13:53:24.213Z,7.33
2018-07-21T13:55:52.044Z,5.67
2018-07-21T13:58:21.195Z,7.90
2018-07-21T14:00:49.122Z,7.20
2018-07-21T14:03:17.146Z,6.97
2018-07-21T14:05:49.558Z,6.67
2018-07-21T14:08:18.434Z,6.40
2018-07-21T14:10:46.934Z,6.37
2018-07-21T14:13:15.064Z,5.80
2018-07-21T14:15:47.744Z,5.17
2018-07-21T14:18:22.494Z,7.73
2018-07-21T14:20:51.327Z,6.23
2018-07-21T14:23:19.172Z,8.10
2018-07-21T14:25:47.092Z,7.30
2018-07-21T14:28:15.941Z,6.03
2018-07-21T14:30:48.356Z,5.43
2018-07-21T14:33:18.989Z,5.40
2018-07-21T14:35:46.875Z,6.03
2018-07-21T14:38:22.756Z,5.73
2018-07-21T14:40:55.568Z,7.27
2018-07-21T14:43:23.432Z,5.90
2018-07-21T14:45:55.145Z,6.67
2018-07-21T14:48:24.194Z,6.97
2018-07-21T14:50:53.734Z,6.27
2018-07-21T14:53:29.587Z,6.27
2018-07-21T14:55:59.508Z,7.30
2018-07-21T14:58:27.411Z,6.47
2018-07-21T15:00:55.187Z,5.93
2018-07-21T15:03:28.814Z,6.47
2018-07-21T15:05:57.003Z,6.73
2018-07-21T15:08:24.835Z,6.07
2018-07-21T15:10:58.630Z,5.90
2018-07-21T15:13:36.861Z,6.80
2018-07-21T15:16:05.228Z,7.07
2018-07-21T15:18:33.139Z,7.20
2018-07-21T15:21:00.941Z,5.80
2018-07-21T15:23:28.740Z,8.70
2018-07-21T15:25:56.569Z,6.67
2018-07-21T15:28:24.407Z,6.50
2018-07-21T15:30:52.262Z,5.90
2018-07-21T15:33:20.111Z,6.17
2018-07-21T15:35:48.802Z,8.67
2018-07-21T15:38:16.847Z,6.03
2018-07-21T15:40:44.691Z,8.63
2018-07-21T15:43:12.479Z,7.00
2018-07-21T15:45:40.296Z,8.43
2018-07-21T15:48:08.152Z,7.20
2018-07-21T15:50:35.943Z,10.27
2018-07-21T15:53:03.820Z,7.43
2018-07-21T15:55:34.381Z,7.53
2018-07-21T15:58:02.544Z,9.20
2018-07-21T16:00:30.388Z,10.87
2018-07-21T16:02:58.231Z,9.60
2018-07-21T16:05:26.036Z,16.33
2018-07-21T16:07:54.276Z,11.83
2018-07-21T16:10:22.308Z,8.80
2018-07-21T16:12:50.076Z,9.10
2018-07-21T16:15:17.903Z,12.83
2018-07-21T16:17:45.670Z,9.20
2018-07-21T16:20:13.490Z,11.70
2018-07-21T16:22:41.275Z,9.13
2018-07-21T16:25:09.043Z,7.17
2018-07-21T16:27:36.851Z,7.60
2018-07-21T16:30:05.084Z,8.53
2018-07-21T16:32:32.912Z,8.47
2018-07-21T16:35:00.776Z,7.77
2018-07-21T16:37:28.659Z,7.63
2018-07-21T16:39:56.457Z,11.97
2018-07-21T16:42:24.327Z,9.10
2018-07-21T16:44:52.139Z,8.30
2018-07-21T16:47:19.908Z,8.07
2018-07-21T16:49:47.784Z,9.63
2018-07-21T16:52:15.697Z,8.20
2018-07-21T16:54:43.604Z,11.83
2018-07-21T16:57:11.394Z,12.67
2018-07-21T16:59:39.205Z,8.60
2018-07-21T17:02:07.080Z,11.23
2018-07-21T17:04:34.856Z,12.20
2018-07-21T17:07:02.617Z,10.00
2018-07-21T17:09:30.412Z,10.17
2018-07-21T17:11:58.195Z,9.77
2018-07-21T17:14:26.013Z,10.70
2018-07-21T17:16:53.780Z,9.73
2018-07-21T17:19:21.493Z,15.00
2018-07-21T17:21:49.326Z,12.50
2018-07-21T17:24:17.115Z,13.20
2018-07-21T17:26:44.888Z,10.40
2018-07-21T17:29:12.764Z,13.33
2018-07-21T17:31:40.605Z,9.03
2018-07-21T17:34:08.458Z,10.63
2018-07-21T17:36:36.246Z,9.73
2018-07-21T17:39:07.490Z,8.60
2018-07-21T17:41:36.378Z,10.77
2018-07-21T17:44:04.582Z,9.43
2018-07-21T17:46:32.457Z,7.97
2018-07-21T17:49:00.347Z,9.30
2018-07-21T17:51:28.219Z,8.60
2018-07-21T17:53:55.960Z,11.83
2018-07-21T17:56:23.807Z,10.63
2018-07-21T17:58:51.608Z,9.40
2018-07-21T18:01:19.504Z,13.20
2018-07-21T18:03:47.257Z,11.57
2018-07-21T18:06:15.108Z,10.37
2018-07-21T18:08:42.888Z,11.27
2018-07-21T18:11:10.723Z,9.80
2018-07-21T18:13:38.551Z,11.83
2018-07-21T18:16:07.814Z,10.03
2018-07-21T18:18:35.589Z,8.07
2018-07-21T18:21:03.471Z,7.57
2018-07-21T18:23:31.287Z,9.13
2018-07-21T18:25:59.144Z,7.60
2018-07-21T18:28:26.987Z,11.00
2018-07-21T18:30:54.766Z,10.57
2018-07-21T18:33:22.634Z,9.27
2018-07-21T18:35:50.494Z,8.97
2018-07-21T18:38:18.271Z,8.80
2018-07-21T18:40:46.068Z,9.13
2018-07-21T18:43:13.902Z,7.80
2018-07-21T18:45:41.731Z,8.83
2018-07-21T18:48:09.555Z,10.07
2018-07-21T18:50:37.364Z,8.43
2018-07-21T18:53:05.171Z,8.80
2018-07-21T18:55:33.004Z,9.03
2018-07-21T18:58:01.348Z,8.67
2018-07-21T19:00:29.153Z,9.80
2018-07-21T19:02:56.963Z,10.20
2018-07-21T19:05:24.827Z,9.77
2018-07-21T19:07:53.573Z,9.80
2018-07-21T19:10:21.703Z,11.70
2018-07-21T19:12:50.988Z,9.77
2018-07-21T19:15:24.692Z,12.27
2018-07-21T19:17:52.733Z,9.40
2018-07-21T19:20:26.300Z,11.00
2018-07-21T19:22:54.171Z,9.97
2018-07-21T19:25:28.105Z,12.50
2018-07-21T19:27:56.275Z,12.30
2018-07-21T19:30:27.366Z,12.10
2018-07-21T19:32:57.215Z,13.03
2018-07-21T19:35:25.308Z,13.43
2018-07-21T19:37:53.083Z,15.53
2018-07-21T19:40:20.847Z,15.73
2018-07-21T19:42:48.807Z,17.25
2018-07-21T19:45:16.571Z,13.50
2018-07-21T19:47:44.447Z,16.10
2018-07-21T19:50:12.284Z,14.67
2018-07-21T19:52:40.722Z,13.10
2018-07-21T19:55:08.923Z,16.03
2018-07-21T19:57:37.387Z,18.67
2018-07-21T20:00:05.953Z,17.33
2018-07-21T20:02:38.395Z,15.43
2018-07-21T20:05:07.469Z,18.00
2018-07-21T20:07:35.308Z,20.33
2018-07-21T20:10:05.200Z,18.70
2018-07-21T20:12:33.057Z,18.27
2018-07-21T20:15:00.780Z,19.10
2018-07-21T20:17:28.684Z,18.57
2018-07-21T20:19:56.456Z,14.40
2018-07-21T20:22:24.639Z,16.40
2018-07-21T20:24:58.022Z,15.83
2018-07-21T20:27:26.063Z,12.97
2018-07-21T20:29:54.322Z,15.73
2018-07-21T20:32:26.571Z,15.03
2018-07-21T20:34:56.221Z,16.97
2018-07-21T20:37:24.129Z,16.10
2018-07-21T20:39:51.959Z,16.57
2018-07-21T20:42:21.328Z,17.17
2018-07-21T20:44:49.145Z,15.83
2018-07-21T20:47:22.402Z,17.70
2018-07-21T20:49:50.143Z,17.17
2018-07-21T20:52:21.261Z,17.60
2018-07-21T20:54:53.143Z,13.63
2018-07-21T20:57:21.553Z,14.63
2018-07-21T20:59:49.845Z,14.53
2018-07-21T21:02:17.655Z,11.73
2018-07-21T21:04:45.547Z,16.40
2018-07-21T21:07:13.388Z,14.70
2018-07-21T21:09:47.733Z,17.47
2018-07-21T21:12:16.017Z,15.53
2018-07-21T21:14:43.744Z,15.93
2018-07-21T21:17:12.210Z,16.90
2018-07-21T21:19:40.665Z,16.70
2018-07-21T21:22:08.507Z,17.23
2018-07-21T21:24:36.395Z,13.00
2018-07-21T21:27:04.198Z,19.13
2018-07-21T21:29:32.063Z,19.50
2018-07-21T21:31:59.890Z,20.63
2018-07-21T21:34:27.805Z,18.13
2018-07-21T21:36:55.565Z,17.57
2018-07-21T21:39:27.937Z,18.60
2018-07-21T21:41:56.449Z,19.13
2018-07-21T21:44:24.400Z,17.33
2018-07-21T21:46:52.196Z,14.63
2018-07-21T21:49:19.931Z,17.57
2018-07-21T21:51:47.854Z,21.20
2018-07-21T21:54:15.683Z,20.80
2018-07-21T21:56:49.031Z,17.40
2018-07-21T21:59:16.944Z,15.77
2018-07-21T22:01:51.200Z,14.97
2018-07-21T22:04:19.072Z,17.37
2018-07-21T22:06:46.835Z,17.43
2018-07-21T22:09:14.660Z,16.80
2018-07-21T22:11:42.527Z,17.57
2018-07-21T22:14:10.368Z,15.10
2018-07-21T22:16:39.797Z,16.73
2018-07-21T22:19:07.733Z,14.33
2018-07-21T22:21:35.538Z,16.17
2018-07-21T22:24:03.372Z,16.33
2018-07-21T22:26:31.655Z,15.33
2018-07-21T22:29:04.719Z,16.40
2018-07-21T22:31:33.200Z,13.07
2018-07-21T22:34:00.960Z,15.87
2018-07-21T22:36:28.767Z,14.37
2018-07-21T22:38:56.639Z,16.00
2018-07-21T22:41:25.077Z,14.23
2018-07-21T22:43:52.836Z,15.00
2018-07-21T22:46:20.646Z,16.43
2018-07-21T22:48:48.512Z,16.50
2018-07-21T22:51:16.351Z,15.07
2018-07-21T22:53:44.144Z,15.53
2018-07-21T22:56:11.890Z,14.00
2018-07-21T22:58:39.778Z,15.70
2018-07-21T23:01:07.637Z,12.47
2018-07-21T23:03:35.442Z,16.53
2018-07-21T23:06:03.355Z,12.97
2018-07-21T23:08:31.154Z,13.40
2018-07-21T23:10:58.967Z,14.80
2018-07-21T23:13:26.787Z,12.80
2018-07-21T23:15:54.588Z,17.50
2018-07-21T23:18:22.462Z,16.63
2018-07-21T23:20:50.336Z,18.70
2018-07-21T23:23:18.121Z,16.63
2018-07-21T23:25:45.920Z,15.53
2018-07-21T23:28:13.769Z,14.73
2018-07-21T23:30:41.539Z,15.83
2018-07-21T23:33:09.404Z,16.40
2018-07-21T23:35:37.202Z,11.80
2018-07-21T23:38:05.048Z,16.53
2018-07-21T23:40:32.827Z,15.67
2018-07-21T23:43:00.623Z,15.57
2018-07-21T23:45:28.443Z,13.93
2018-07-21T23:47:56.259Z,13.37
2018-07-21T23:50:24.131Z,15.83
2018-07-21T23:52:51.924Z,13.77
2018-07-21T23:55:19.791Z,14.60
2018-07-21T23:57:47.534Z,13.67
